Time;durP1;ratioP1;P1;durP2;ratioP2;P2;SDS_P1;SDS_P2;PMS_P1;PMS_P2;Temp;Humidity;BMP_temperature;BMP_pressure;BME280_temperature;BME280_humidity;BME280_pressure;Samples;Min_cycle;Max_cycle;Signal;HPM_P1;HPM_P2
2021/04/20 00:00:29;;;;;;;16.07;13.17;;;10.00;99.90;;;;;;5106382;28;20248;-82
2021/04/20 00:02:57;;;;;;;14.37;11.33;;;10.00;99.90;;;;;;5106688;28;20713;-83
2021/04/20 00:05:23;;;;;;;15.83;12.07;;;10.00;99.90;;;;;;5109114;28;20383;-80
2021/04/20 00:07:49;;;;;;;16.70;12.00;;;10.00;99.90;;;;;;5113495;28;20440;-80
2021/04/20 00:10:19;;;;;;;18.73;11.33;;;10.00;99.90;;;;;;5112628;28;20469;-79
2021/04/20 00:12:47;;;;;;;17.40;11.30;;;9.90;99.90;;;;;;5112974;28;20263;-80
2021/04/20 00:15:20;;;;;;;13.00;11.60;;;10.00;99.90;;;;;;5109893;28;20718;-82
2021/04/20 00:17:48;;;;;;;18.90;11.63;;;9.90;99.90;;;;;;5092282;28;20418;-82
2021/04/20 00:20:14;;;;;;;18.97;12.70;;;9.80;99.90;;;;;;5109243;28;20740;-82
2021/04/20 00:22:40;;;;;;;16.07;10.77;;;9.90;99.90;;;;;;5107129;28;20483;-82
2021/04/20 00:25:07;;;;;;;13.87;10.70;;;9.80;99.90;;;;;;5108461;28;20422;-82
2021/04/20 00:27:33;;;;;;;15.43;11.37;;;9.90;99.90;;;;;;5109165;28;20400;-82
2021/04/20 00:29:58;;;;;;;14.77;11.07;;;9.90;99.90;;;;;;5109073;28;20892;-82
2021/04/20 00:32:24;;;;;;;16.93;11.83;;;9.90;99.90;;;;;;5107490;28;20194;-82
2021/04/20 00:34:50;;;;;;;17.17;12.63;;;9.90;99.90;;;;;;5109551;28;20159;-81
2021/04/20 00:37:16;;;;;;;16.07;12.27;;;9.80;99.90;;;;;;5108811;28;20663;-82
2021/04/20 00:39:41;;;;;;;15.60;11.80;;;9.80;99.90;;;;;;5107686;28;20246;-82
2021/04/20 00:42:09;;;;;;;15.20;12.00;;;9.70;99.90;;;;;;5108478;28;20243;-81
2021/04/20 00:44:35;;;;;;;15.13;11.33;;;9.70;99.90;;;;;;5107633;28;20618;-82
2021/04/20 00:47:04;;;;;;;18.87;11.33;;;9.70;99.90;;;;;;5108284;28;20388;-82
2021/04/20 00:49:31;;;;;;;12.00;10.43;;;9.80;99.90;;;;;;5106938;28;20397;-82
2021/04/20 00:51:57;;;;;;;15.17;10.53;;;9.70;99.90;;;;;;5107228;28;20991;-81
2021/04/20 00:54:24;;;;;;;18.67;12.30;;;9.70;99.90;;;;;;5113425;28;20393;-82
2021/04/20 00:56:50;;;;;;;16.90;11.70;;;9.60;99.90;;;;;;5113540;28;20534;-80
2021/04/20 00:59:17;;;;;;;14.90;11.40;;;9.60;99.90;;;;;;5112607;28;20451;-82
2021/04/20 01:01:46;;;;;;;17.40;10.87;;;9.60;99.90;;;;;;5090732;28;20407;-81
2021/04/20 01:04:13;;;;;;;16.80;12.30;;;9.50;99.90;;;;;;5106920;28;20448;-82
2021/04/20 01:06:43;;;;;;;14.30;10.70;;;9.60;99.90;;;;;;5112420;28;20397;-82
2021/04/20 01:09:09;;;;;;;19.53;12.17;;;9.50;99.90;;;;;;5111207;28;20480;-82
2021/04/20 01:11:36;;;;;;;15.53;10.30;;;9.50;99.90;;;;;;5111320;28;20464;-82
2021/04/20 01:14:04;;;;;;;15.30;9.90;;;9.50;99.90;;;;;;5108771;28;20393;-82
2021/04/20 01:16:30;;;;;;;14.13;11.03;;;9.50;99.90;;;;;;5109172;28;20393;-82
2021/04/20 01:18:56;;;;;;;16.60;11.73;;;9.50;99.90;;;;;;5107430;28;20510;-82
2021/04/20 01:21:23;;;;;;;14.30;10.47;;;9.40;99.90;;;;;;5108161;28;20389;-82
2021/04/20 01:24:14;;;;;;;17.67;11.30;;;9.30;99.90;;;;;;5106785;28;20824;-82
2021/04/20 01:26:43;;;;;;;14.97;10.83;;;9.20;99.90;;;;;;5092568;28;20367;-82
2021/04/20 01:29:09;;;;;;;14.93;10.70;;;9.30;99.90;;;;;;5109132;28;20423;-82
2021/04/20 01:31:38;;;;;;;18.37;12.10;;;9.30;99.90;;;;;;5108556;28;20399;-82
2021/04/20 01:34:04;;;;;;;14.87;10.33;;;9.20;99.90;;;;;;5109489;28;20873;-82
2021/04/20 01:36:31;;;;;;;15.37;12.30;;;9.20;99.90;;;;;;5108839;28;20404;-82
2021/04/20 01:38:58;;;;;;;17.73;11.90;;;9.20;99.90;;;;;;5108475;28;20397;-82
2021/04/20 01:41:26;;;;;;;17.20;10.80;;;9.20;99.90;;;;;;5107896;28;20449;-82
2021/04/20 01:43:54;;;;;;;19.03;12.83;;;9.20;99.90;;;;;;5108624;28;20714;-82
2021/04/20 01:46:20;;;;;;;16.43;13.40;;;9.20;99.90;;;;;;5108009;28;20397;-82
2021/04/20 01:48:47;;;;;;;16.20;10.20;;;9.20;99.90;;;;;;5108041;28;20393;-82
2021/04/20 01:51:16;;;;;;;17.17;11.90;;;9.20;99.90;;;;;;5089412;28;20393;-82
2021/04/20 01:53:42;;;;;;;13.80;11.43;;;9.10;99.90;;;;;;5108027;28;20403;-82
2021/04/20 01:56:10;;;;;;;14.90;11.50;;;9.10;99.90;;;;;;5112371;28;20404;-80
2021/04/20 01:58:38;;;;;;;20.30;11.30;;;9.00;99.90;;;;;;5118705;28;20389;-82
2021/04/20 02:01:08;;;;;;;16.63;11.33;;;8.80;99.90;;;;;;5108841;28;20420;-82
2021/04/20 02:03:35;;;;;;;16.63;11.90;;;8.90;99.90;;;;;;5106667;28;20424;-82
2021/04/20 02:06:02;;;;;;;16.77;12.53;;;8.80;99.90;;;;;;5107962;28;20419;-82
2021/04/20 02:08:28;;;;;;;15.23;11.33;;;8.90;99.90;;;;;;5106517;28;20476;-82
2021/04/20 02:10:56;;;;;;;14.20;11.20;;;9.00;99.90;;;;;;5107721;28;20396;-83
2021/04/20 02:13:23;;;;;;;19.30;12.00;;;9.00;99.90;;;;;;5108207;28;20399;-82
2021/04/20 02:15:49;;;;;;;18.57;10.87;;;9.00;99.90;;;;;;5109372;28;20397;-82
2021/04/20 02:18:17;;;;;;;16.17;12.50;;;9.00;99.90;;;;;;5110790;28;20395;-82
2021/04/20 02:20:45;;;;;;;15.23;12.00;;;8.90;99.90;;;;;;5109167;28;20159;-82
2021/04/20 02:23:10;;;;;;;15.30;10.87;;;8.90;99.90;;;;;;5106845;28;20531;-82
2021/04/20 02:25:37;;;;;;;15.33;12.93;;;8.90;99.90;;;;;;5106983;28;20396;-82
2021/04/20 02:28:03;;;;;;;15.63;11.40;;;8.90;99.90;;;;;;5105764;28;20154;-82
2021/04/20 02:30:29;;;;;;;14.43;11.10;;;8.80;99.90;;;;;;5106466;28;20399;-82
2021/04/20 02:32:56;;;;;;;16.57;12.10;;;8.80;99.90;;;;;;5106776;28;21039;-81
2021/04/20 02:35:22;;;;;;;17.63;11.50;;;8.70;99.90;;;;;;5106241;28;20397;-81
2021/04/20 02:37:48;;;;;;;21.93;13.00;;;8.60;99.90;;;;;;5106342;28;20404;-82
2021/04/20 02:40:24;;;;;;;19.53;13.83;;;8.60;99.90;;;;;;5106723;28;20457;-80
2021/04/20 02:42:51;;;;;;;18.00;13.50;;;8.70;99.90;;;;;;5106504;28;20278;-82
2021/04/20 02:45:19;;;;;;;14.50;11.13;;;8.70;99.90;;;;;;5104633;28;20393;-81
2021/04/20 02:47:46;;;;;;;18.40;12.33;;;8.70;99.90;;;;;;5087685;28;20491;-82
2021/04/20 02:50:15;;;;;;;18.80;13.10;;;8.70;99.90;;;;;;5106472;28;20397;-82
2021/04/20 02:52:41;;;;;;;15.63;11.63;;;8.50;99.90;;;;;;5106487;28;20424;-82
2021/04/20 02:55:10;;;;;;;24.03;13.10;;;8.50;99.90;;;;;;5106850;28;20397;-82
2021/04/20 02:57:38;;;;;;;16.43;11.43;;;8.40;99.90;;;;;;5106911;28;20389;-82
2021/04/20 03:00:07;;;;;;;20.23;14.93;;;8.40;99.90;;;;;;5106831;28;20888;-81
2021/04/20 03:02:36;;;;;;;19.33;12.67;;;8.30;99.90;;;;;;5106476;28;20436;-82
2021/04/20 03:05:05;;;;;;;17.83;13.87;;;8.20;99.90;;;;;;5106005;28;20446;-81
2021/04/20 03:07:31;;;;;;;22.90;13.93;;;8.10;99.90;;;;;;5088767;28;20421;-82
2021/04/20 03:09:57;;;;;;;19.13;12.50;;;8.00;99.90;;;;;;5105274;28;20397;-82
2021/04/20 03:12:23;;;;;;;23.47;14.00;;;8.00;99.90;;;;;;5107426;28;20443;-82
2021/04/20 03:14:50;;;;;;;20.50;14.20;;;8.00;99.90;;;;;;5106301;28;20159;-82
2021/04/20 03:17:19;;;;;;;19.47;12.63;;;8.00;99.90;;;;;;5106481;28;20392;-82
2021/04/20 03:19:47;;;;;;;23.13;13.20;;;7.90;99.90;;;;;;5105741;28;20389;-82
2021/04/20 03:22:14;;;;;;;19.57;13.53;;;7.90;99.90;;;;;;5107424;28;20439;-82
2021/04/20 03:25:01;;;;;;;20.77;14.00;;;7.90;99.90;;;;;;5105788;28;20449;-81
2021/04/20 03:27:28;;;;;;;20.27;13.83;;;7.80;99.90;;;;;;5106506;28;20419;-81
2021/04/20 03:29:54;;;;;;;20.87;15.10;;;7.70;99.90;;;;;;5106078;28;20465;-81
2021/04/20 03:32:20;;;;;;;21.00;12.53;;;7.70;99.90;;;;;;5107814;28;20401;-82
2021/04/20 03:35:10;;;;;;;21.07;12.67;;;7.70;99.90;;;;;;5106922;28;20427;-81
2021/04/20 03:37:46;;;;;;;23.97;15.10;;;7.70;99.90;;;;;;5111047;28;20161;-80
2021/04/20 03:40:13;;;;;;;20.13;12.57;;;7.70;99.90;;;;;;5115647;28;20423;-80
2021/04/20 03:42:45;;;;;;;23.17;14.47;;;7.60;99.90;;;;;;5115418;28;20467;-80
2021/04/20 03:45:17;;;;;;;25.43;14.70;;;7.60;99.90;;;;;;5111994;28;20396;-82
2021/04/20 03:47:47;;;;;;;22.77;13.97;;;7.70;99.90;;;;;;5105851;28;20404;-82
2021/04/20 03:50:18;;;;;;;21.97;15.43;;;7.70;99.90;;;;;;5106715;28;20452;-82
2021/04/20 03:52:48;;;;;;;22.20;14.40;;;7.70;99.90;;;;;;5106452;28;20894;-82
2021/04/20 03:55:17;;;;;;;22.20;14.47;;;7.60;99.90;;;;;;5106360;28;20431;-82
2021/04/20 03:57:45;;;;;;;26.57;15.00;;;7.60;99.90;;;;;;5105552;28;20397;-82
2021/04/20 04:00:15;;;;;;;35.87;15.40;;;7.50;99.90;;;;;;5106056;28;20786;-82
2021/04/20 04:02:44;;;;;;;23.50;14.90;;;7.60;99.90;;;;;;5105677;28;20440;-82
2021/04/20 04:05:15;;;;;;;21.30;13.57;;;7.60;99.90;;;;;;5105304;28;20393;-82
2021/04/20 04:07:42;;;;;;;24.60;15.23;;;7.60;99.90;;;;;;5105978;28;20435;-81
2021/04/20 04:10:09;;;;;;;18.50;13.60;;;7.60;99.90;;;;;;5106227;28;20393;-81
2021/04/20 04:12:38;;;;;;;19.53;13.57;;;7.60;99.90;;;;;;5105966;28;20454;-82
2021/04/20 04:15:07;;;;;;;21.23;14.90;;;7.50;99.90;;;;;;5106202;28;20479;-82
2021/04/20 04:17:34;;;;;;;20.67;14.27;;;7.50;99.90;;;;;;5105331;28;20400;-82
2021/04/20 04:20:02;;;;;;;20.20;12.63;;;7.40;99.90;;;;;;5106516;28;20450;-82
2021/04/20 04:22:31;;;;;;;18.47;14.17;;;7.40;99.90;;;;;;5105378;28;20483;-82
2021/04/20 04:24:59;;;;;;;26.57;15.00;;;7.40;99.90;;;;;;5105736;28;20404;-82
2021/04/20 04:27:28;;;;;;;25.53;14.63;;;7.30;99.90;;;;;;5105672;28;20813;-81
2021/04/20 04:29:59;;;;;;;17.80;13.47;;;7.30;99.90;;;;;;5106340;28;20389;-82
2021/04/20 04:32:29;;;;;;;22.93;15.57;;;7.20;99.90;;;;;;5105743;28;20396;-82
2021/04/20 04:34:55;;;;;;;14.70;12.23;;;7.20;99.90;;;;;;5106232;28;20393;-82
2021/04/20 04:37:22;;;;;;;18.90;13.47;;;7.10;99.90;;;;;;5104171;28;20406;-82
2021/04/20 04:39:48;;;;;;;20.87;14.30;;;7.10;99.90;;;;;;5106134;28;20395;-82
2021/04/20 04:42:16;;;;;;;25.70;15.33;;;7.10;99.90;;;;;;5103835;28;20468;-82
2021/04/20 04:44:42;;;;;;;22.83;14.83;;;7.20;99.90;;;;;;5104996;28;20392;-81
2021/04/20 04:47:10;;;;;;;22.00;13.73;;;7.20;99.90;;;;;;5105429;28;20742;-81
2021/04/20 04:49:38;;;;;;;27.67;16.13;;;7.20;99.90;;;;;;5105796;28;20393;-82
2021/04/20 04:52:05;;;;;;;25.30;16.17;;;7.20;99.90;;;;;;5105666;28;20889;-82
2021/04/20 04:54:31;;;;;;;24.57;16.27;;;7.30;99.90;;;;;;5104707;28;20397;-82
2021/04/20 04:57:00;;;;;;;23.80;13.77;;;7.30;99.90;;;;;;5105879;28;20537;-82
2021/04/20 04:59:27;;;;;;;24.40;13.97;;;7.20;99.90;;;;;;5106290;28;20397;-82
2021/04/20 05:01:54;;;;;;;27.47;14.80;;;7.30;99.90;;;;;;5105721;28;20456;-81
2021/04/20 05:04:24;;;;;;;25.43;15.07;;;7.30;99.90;;;;;;5110114;28;20392;-82
2021/04/20 05:06:51;;;;;;;28.03;16.93;;;7.40;99.90;;;;;;5109786;28;20472;-82
2021/04/20 05:09:21;;;;;;;18.70;13.80;;;7.40;99.90;;;;;;5110414;28;20436;-81
2021/04/20 05:11:48;;;;;;;26.77;15.63;;;7.40;99.90;;;;;;5116060;28;20480;-81
2021/04/20 05:14:35;;;;;;;24.47;15.23;;;7.40;99.90;;;;;;5112050;28;20442;-81
2021/04/20 05:17:15;;;;;;;22.60;15.57;;;7.50;99.90;;;;;;5110819;28;20413;-82
2021/04/20 05:19:42;;;;;;;26.40;16.00;;;7.50;99.90;;;;;;5109253;28;20423;-82
2021/04/20 05:22:12;;;;;;;24.43;16.03;;;7.40;99.90;;;;;;5110856;28;20447;-81
2021/04/20 05:24:38;;;;;;;24.90;15.20;;;7.30;99.90;;;;;;5111693;28;20408;-82
2021/04/20 05:27:06;;;;;;;23.33;15.40;;;7.20;99.90;;;;;;5111165;28;20393;-83
2021/04/20 05:29:33;;;;;;;24.40;15.13;;;7.30;99.90;;;;;;5110766;28;20424;-83
2021/04/20 05:31:59;;;;;;;22.70;13.63;;;7.40;99.90;;;;;;5109041;28;20389;-82
2021/04/20 05:34:25;;;;;;;19.20;14.23;;;7.50;99.90;;;;;;5109607;28;20399;-83
2021/04/20 05:36:51;;;;;;;25.70;15.93;;;7.50;99.90;;;;;;5109813;28;20170;-82
2021/04/20 05:39:19;;;;;;;21.20;12.73;;;7.60;99.90;;;;;;5091175;28;20405;-83
2021/04/20 05:41:46;;;;;;;24.20;15.57;;;7.70;99.90;;;;;;5118658;28;20514;-83
2021/04/20 05:44:14;;;;;;;16.67;13.40;;;7.60;99.90;;;;;;5110445;28;20409;-82
2021/04/20 05:46:46;;;;;;;18.87;13.43;;;7.60;99.90;;;;;;5108837;28;20418;-81
2021/04/20 05:49:12;;;;;;;23.90;13.80;;;7.60;99.90;;;;;;5109931;28;20507;-79
2021/04/20 05:51:40;;;;;;;27.50;16.10;;;7.60;99.90;;;;;;5118478;28;20416;-80
2021/04/20 05:54:07;;;;;;;18.63;12.77;;;7.60;99.90;;;;;;5114180;28;20417;-82
2021/04/20 05:56:33;;;;;;;24.90;15.87;;;7.60;99.90;;;;;;5107677;28;20412;-81
2021/04/20 05:59:00;;;;;;;18.27;12.73;;;7.60;99.90;;;;;;5105917;28;20495;-81
2021/04/20 06:01:28;;;;;;;26.60;15.17;;;7.70;99.90;;;;;;5108414;28;20170;-82
2021/04/20 06:03:55;;;;;;;19.70;14.17;;;7.70;99.90;;;;;;5108438;28;20417;-81
2021/04/20 06:06:23;;;;;;;21.53;13.93;;;7.60;99.90;;;;;;5108958;28;20431;-82
2021/04/20 06:08:52;;;;;;;23.63;15.13;;;7.60;99.90;;;;;;5108599;28;20440;-80
2021/04/20 06:11:25;;;;;;;22.80;14.97;;;7.50;99.90;;;;;;5108586;28;20396;-81
2021/04/20 06:13:53;;;;;;;23.40;15.73;;;7.70;99.90;;;;;;5073293;28;20385;-80
2021/04/20 06:16:20;;;;;;;20.80;15.63;;;7.60;99.90;;;;;;5107818;28;20396;-81
2021/04/20 06:18:46;;;;;;;26.87;16.03;;;7.70;99.90;;;;;;5107894;28;20416;-81
2021/04/20 06:21:15;;;;;;;23.90;15.10;;;7.70;99.90;;;;;;5106735;28;20405;-81
2021/04/20 06:23:43;;;;;;;28.43;16.67;;;7.30;99.90;;;;;;5106797;28;20444;-81
2021/04/20 06:26:09;;;;;;;23.93;15.77;;;7.30;99.90;;;;;;5104914;28;20420;-81
2021/04/20 06:28:37;;;;;;;22.73;16.70;;;7.10;99.90;;;;;;5104272;28;20944;-81
2021/04/20 06:31:22;;;;;;;30.27;17.13;;;7.40;99.90;;;;;;5110413;28;20468;-81
2021/04/20 06:33:48;;;;;;;31.17;18.23;;;7.60;99.90;;;;;;5114128;28;20443;-82
2021/04/20 06:36:15;;;;;;;26.07;16.90;;;7.70;99.90;;;;;;5084427;28;20432;-81
2021/04/20 06:38:41;;;;;;;24.13;17.90;;;7.90;99.90;;;;;;5110125;28;20448;-80
2021/04/20 06:41:09;;;;;;;35.17;18.10;;;8.10;99.90;;;;;;5091798;28;20591;-79
2021/04/20 06:43:55;;;;;;;26.33;18.37;;;8.10;99.90;;;;;;5108255;28;20464;-80
2021/04/20 06:46:28;;;;;;;27.23;17.50;;;8.20;99.90;;;;;;5103353;28;20424;-82
2021/04/20 06:49:01;;;;;;;34.23;17.70;;;8.30;99.90;;;;;;5095332;28;20424;-83
2021/04/20 06:51:31;;;;;;;29.17;18.10;;;8.40;99.90;;;;;;5101861;28;20444;-82
2021/04/20 06:54:14;;;;;;;31.43;20.20;;;8.40;99.90;;;;;;5083048;28;20397;-82
2021/04/20 06:56:46;;;;;;;29.83;19.27;;;8.50;99.90;;;;;;5094011;28;20450;-82
2021/04/20 06:59:30;;;;;;;33.13;19.63;;;8.50;99.90;;;;;;5110138;28;20428;-82
2021/04/20 07:02:09;;;;;;;30.07;18.40;;;8.60;99.90;;;;;;5096517;28;20503;-83
2021/04/20 07:04:44;;;;;;;35.27;19.80;;;8.60;99.90;;;;;;5091574;28;20477;-84
2021/04/20 07:07:33;;;;;;;30.80;19.17;;;8.70;99.90;;;;;;5099538;28;20416;-82
2021/04/20 07:10:17;;;;;;;27.40;18.10;;;8.70;99.90;;;;;;5097796;28;20772;-82
2021/04/20 07:12:47;;;;;;;29.87;18.50;;;8.80;99.90;;;;;;5099221;28;20520;-82
2021/04/20 07:15:18;;;;;;;27.57;19.60;;;9.00;99.90;;;;;;5093363;28;20428;-82
2021/04/20 07:18:11;;;;;;;33.67;18.50;;;9.00;99.90;;;;;;5091824;28;20420;-83
2021/04/20 07:21:13;;;;;;;29.20;19.00;;;9.00;99.90;;;;;;5085088;28;20489;-82
2021/04/20 07:24:11;;;;;;;34.73;20.03;;;9.20;99.90;;;;;;5099439;28;20494;-82
2021/04/20 07:26:53;;;;;;;25.90;18.10;;;9.30;99.90;;;;;;5101497;28;20405;-83
2021/04/20 07:29:42;;;;;;;29.57;19.60;;;9.30;99.90;;;;;;5065759;28;20879;-83
2021/04/20 07:32:28;;;;;;;31.20;19.90;;;9.20;99.90;;;;;;5079780;28;20428;-83
2021/04/20 07:35:12;;;;;;;31.73;22.30;;;9.20;99.90;;;;;;5097534;28;20530;-84
2021/04/20 07:37:43;;;;;;;32.03;22.90;;;9.20;99.90;;;;;;5079197;28;20460;-83
2021/04/20 07:40:27;;;;;;;56.20;21.77;;;9.40;99.90;;;;;;5095727;28;20460;-82
2021/04/20 07:43:23;;;;;;;32.93;21.10;;;9.70;99.90;;;;;;5098176;28;20481;-82
2021/04/20 07:46:17;;;;;;;31.57;20.50;;;9.70;99.90;;;;;;5080457;28;20436;-83
2021/04/20 07:48:57;;;;;;;38.17;23.10;;;9.90;99.90;;;;;;5100565;28;20474;-82
2021/04/20 07:51:46;;;;;;;34.77;23.43;;;10.00;99.90;;;;;;5095724;28;20780;-82
2021/04/20 07:54:28;;;;;;;28.17;19.90;;;10.10;99.90;;;;;;5094999;28;20436;-82
2021/04/20 07:57:14;;;;;;;32.00;20.93;;;10.30;99.90;;;;;;5079498;28;20432;-82
2021/04/20 08:00:06;;;;;;;32.80;19.47;;;10.30;99.90;;;;;;5056410;28;20428;-81
2021/04/20 08:02:55;;;;;;;38.87;23.00;;;10.40;99.90;;;;;;5094690;28;20548;-82
2021/04/20 08:05:34;;;;;;;33.40;23.40;;;10.50;99.90;;;;;;5058183;28;20418;-82
2021/04/20 08:08:12;;;;;;;40.63;22.40;;;10.60;99.90;;;;;;5096014;28;20448;-82
2021/04/20 08:10:53;;;;;;;36.27;23.83;;;10.70;99.90;;;;;;5100709;28;20409;-82
2021/04/20 08:13:39;;;;;;;40.10;23.57;;;10.60;99.90;;;;;;5105788;28;20428;-81
2021/04/20 08:16:24;;;;;;;44.03;21.67;;;10.60;99.90;;;;;;5106796;28;20421;-82
2021/04/20 08:18:58;;;;;;;38.57;22.53;;;10.70;99.90;;;;;;5110772;28;20440;-80
2021/04/20 08:21:27;;;;;;;36.90;23.53;;;10.90;99.90;;;;;;5112592;28;20407;-80
2021/04/20 08:23:57;;;;;;;38.27;22.93;;;10.90;99.90;;;;;;5110583;28;20472;-80
2021/04/20 08:26:27;;;;;;;34.23;22.07;;;11.10;99.90;;;;;;5111359;28;20425;-82
2021/04/20 08:29:02;;;;;;;38.37;23.73;;;11.20;99.90;;;;;;5087733;28;20417;-82
2021/04/20 08:31:35;;;;;;;36.70;21.47;;;11.30;99.90;;;;;;5081210;28;20401;-82
2021/04/20 08:34:25;;;;;;;32.97;20.97;;;11.40;99.90;;;;;;5093472;28;20447;-82
2021/04/20 08:37:11;;;;;;;31.27;22.57;;;11.50;99.90;;;;;;5100383;28;20420;-83
2021/04/20 08:39:51;;;;;;;39.73;23.97;;;11.40;99.90;;;;;;5065437;28;20500;-82
2021/04/20 08:42:31;;;;;;;32.23;22.80;;;11.50;99.90;;;;;;5067261;28;20480;-86
2021/04/20 08:45:08;;;;;;;32.40;21.37;;;11.50;99.90;;;;;;5091936;28;20497;-84
2021/04/20 08:47:46;;;;;;;36.40;22.80;;;11.60;99.90;;;;;;5084441;28;20573;-83
2021/04/20 08:50:21;;;;;;;38.10;25.37;;;11.70;99.90;;;;;;5085118;28;20488;-85
2021/04/20 08:53:18;;;;;;;34.97;23.27;;;11.90;99.90;;;;;;5105075;28;20428;-85
2021/04/20 08:55:53;;;;;;;40.72;27.23;;;11.60;99.90;;;;;;5099005;28;20517;-83
2021/04/20 08:58:42;;;;;;;38.80;24.77;;;11.80;99.90;;;;;;5103098;28;20638;-83
2021/04/20 09:01:43;;;;;;;33.03;21.97;;;11.90;99.90;;;;;;5087012;28;20409;-83
2021/04/20 09:04:34;;;;;;;33.50;22.80;;;11.30;99.90;;;;;;5096729;28;20420;-81
2021/04/20 09:07:11;;;;;;;35.97;26.00;;;11.80;99.90;;;;;;5100705;28;20506;-82
2021/04/20 09:09:48;;;;;;;35.50;23.87;;;12.10;99.90;;;;;;5085936;28;20163;-81
2021/04/20 09:12:15;;;;;;;35.57;25.00;;;12.10;99.90;;;;;;5100229;28;20412;-81
2021/04/20 09:14:44;;;;;;;34.40;23.57;;;11.70;99.90;;;;;;5100336;28;20443;-83
2021/04/20 09:17:17;;;;;;;37.17;25.50;;;11.50;99.90;;;;;;5100531;28;20470;-82
2021/04/20 09:19:50;;;;;;;35.13;21.60;;;11.70;99.90;;;;;;5084896;28;20428;-84
2021/04/20 09:22:49;;;;;;;30.73;19.83;;;12.20;99.90;;;;;;5081963;28;20487;-83
2021/04/20 09:25:20;;;;;;;31.47;21.90;;;12.60;99.90;;;;;;5082159;28;20845;-82
2021/04/20 09:28:15;;;;;;;36.65;24.38;;;12.70;99.90;;;;;;5097267;28;20417;-82
2021/04/20 09:31:04;;;;;;;29.63;20.97;;;13.00;99.90;;;;;;5082306;28;20179;-85
2021/04/20 09:33:47;;;;;;;35.17;22.30;;;12.70;99.90;;;;;;5082368;28;20462;-85
2021/04/20 09:36:15;;;;;;;34.43;22.40;;;13.10;99.90;;;;;;5082434;28;20417;-82
2021/04/20 09:38:45;;;;;;;27.20;19.00;;;13.40;99.90;;;;;;5064927;28;20425;-83
2021/04/20 09:41:14;;;;;;;32.50;22.70;;;13.10;99.90;;;;;;5069616;28;20536;-82
2021/04/20 09:43:57;;;;;;;30.60;19.70;;;12.80;99.90;;;;;;5081020;28;20445;-83
2021/04/20 09:46:37;;;;;;;30.17;18.80;;;13.40;99.90;;;;;;5099031;28;20424;-85
2021/04/20 09:49:25;;;;;;;29.30;19.27;;;13.70;99.90;;;;;;5099781;28;20432;-83
2021/04/20 09:51:58;;;;;;;27.47;19.90;;;13.90;99.90;;;;;;5096981;28;20456;-83
2021/04/20 09:54:31;;;;;;;30.30;20.90;;;14.20;99.90;;;;;;5087490;28;20421;-83
2021/04/20 09:57:02;;;;;;;27.80;19.20;;;14.40;99.90;;;;;;5100513;28;20760;-85
2021/04/20 09:59:57;;;;;;;29.87;21.77;;;14.50;99.90;;;;;;5082973;28;20512;-84
2021/04/20 10:02:52;;;;;;;26.20;18.87;;;14.80;99.90;;;;;;5099408;28;20452;-84
2021/04/20 10:05:33;;;;;;;24.63;17.83;;;15.00;99.90;;;;;;5098542;28;20507;-81
2021/04/20 10:08:23;;;;;;;28.97;20.20;;;14.80;99.90;;;;;;5097764;28;20432;-83
2021/04/20 10:11:06;;;;;;;29.98;21.98;;;15.00;99.90;;;;;;5096229;28;20416;-82
2021/04/20 10:13:56;;;;;;;27.57;19.37;;;15.30;99.90;;;;;;5094076;28;20194;-82
2021/04/20 10:16:28;;;;;;;26.03;18.80;;;15.00;99.90;;;;;;5098245;28;20483;-83
2021/04/20 10:19:23;;;;;;;25.23;18.13;;;15.10;99.90;;;;;;5101901;28;20423;-82
2021/04/20 10:22:13;;;;;;;29.00;20.90;;;15.50;99.90;;;;;;5099441;28;20944;-82
2021/04/20 10:24:48;;;;;;;26.87;19.40;;;15.70;99.90;;;;;;5097341;28;20749;-83
2021/04/20 10:27:18;;;;;;;26.80;17.63;;;15.30;99.90;;;;;;5098150;28;20789;-82
2021/04/20 10:30:03;;;;;;;22.70;17.00;;;15.30;99.90;;;;;;5094105;28;20432;-83
2021/04/20 10:32:31;;;;;;;25.00;18.23;;;15.00;99.90;;;;;;5097225;28;20420;-83
2021/04/20 10:34:59;;;;;;;28.97;19.93;;;15.20;99.90;;;;;;5081306;28;20429;-83
2021/04/20 10:37:47;;;;;;;27.53;19.23;;;15.70;99.90;;;;;;5098240;28;20455;-83
2021/04/20 10:40:16;;;;;;;25.93;17.57;;;16.00;99.90;;;;;;5080801;28;20428;-83
2021/04/20 10:42:47;;;;;;;26.67;19.30;;;16.30;99.90;;;;;;5077123;28;20512;-83
2021/04/20 10:45:14;;;;;;;24.67;18.30;;;16.50;99.90;;;;;;5088126;28;20452;-80
2021/04/20 10:47:41;;;;;;;25.67;16.73;;;16.80;99.90;;;;;;5090722;28;21311;-82
2021/04/20 10:50:08;;;;;;;20.97;17.63;;;16.90;99.90;;;;;;5079959;28;20520;-82
2021/04/20 10:52:36;;;;;;;20.17;17.83;;;17.10;99.90;;;;;;5079658;28;20424;-82
2021/04/20 10:55:08;;;;;;;19.77;15.60;;;17.20;99.90;;;;;;5096913;28;20429;-82
2021/04/20 10:57:38;;;;;;;18.27;16.37;;;17.30;99.90;;;;;;5096802;28;20448;-82
2021/04/20 11:00:06;;;;;;;22.10;15.77;;;17.40;99.90;;;;;;5095574;28;20432;-83
2021/04/20 11:02:37;;;;;;;20.33;17.00;;;17.10;99.90;;;;;;5078709;28;20451;-84
2021/04/20 11:05:05;;;;;;;19.30;15.50;;;17.10;99.90;;;;;;5096287;28;20425;-83
2021/04/20 11:07:39;;;;;;;17.60;15.70;;;17.20;99.90;;;;;;5079398;28;20455;-83
2021/04/20 11:10:08;;;;;;;20.93;15.83;;;17.30;99.90;;;;;;5074407;28;20880;-83
2021/04/20 11:12:42;;;;;;;17.70;14.23;;;17.80;99.90;;;;;;5098069;28;20420;-83
2021/04/20 11:15:15;;;;;;;20.67;14.07;;;18.10;99.90;;;;;;5098349;28;20421;-83
2021/04/20 11:18:07;;;;;;;17.90;15.93;;;17.50;99.90;;;;;;5096147;28;20435;-83
2021/04/20 11:20:45;;;;;;;15.83;13.13;;;18.10;99.90;;;;;;5094876;28;20417;-83
2021/04/20 11:23:17;;;;;;;13.00;11.60;;;18.30;99.90;;;;;;5112863;28;20456;-83
2021/04/20 11:25:57;;;;;;;14.87;12.80;;;18.50;99.90;;;;;;5116349;28;20388;-82
2021/04/20 11:28:48;;;;;;;13.00;11.57;;;18.20;99.90;;;;;;5117189;28;20416;-83
2021/04/20 11:31:35;;;;;;;13.03;11.63;;;17.80;99.90;;;;;;5094759;28;20419;-83
2021/04/20 11:34:23;;;;;;;14.30;12.70;;;17.90;99.10;;;;;;5097449;28;20468;-83
2021/04/20 11:37:04;;;;;;;13.80;12.30;;;17.30;99.90;;;;;;5089447;28;20413;-83
2021/04/20 11:39:43;;;;;;;15.33;12.50;;;18.80;99.90;;;;;;5096567;28;20435;-83
2021/04/20 11:42:27;;;;;;;15.27;11.40;;;19.10;99.60;;;;;;5081241;28;20464;-83
2021/04/20 11:45:11;;;;;;;13.60;11.33;;;20.00;97.30;;;;;;5090608;28;20427;-83
2021/04/20 11:47:46;;;;;;;14.90;12.70;;;21.00;93.90;;;;;;5098261;28;20421;-83
2021/04/20 11:50:14;;;;;;;14.40;11.23;;;20.50;90.50;;;;;;5098142;28;20423;-83
2021/04/20 11:52:41;;;;;;;12.57;11.20;;;21.40;90.50;;;;;;5099249;28;20807;-82
2021/04/20 11:55:10;;;;;;;14.23;11.00;;;22.20;85.70;;;;;;5066042;28;20433;-83
2021/04/20 11:57:38;;;;;;;14.07;12.77;;;22.20;82.00;;;;;;5098625;28;20444;-83
2021/04/20 12:00:06;;;;;;;11.83;10.73;;;19.70;84.00;;;;;;5099244;28;20419;-83
2021/04/20 12:02:33;;;;;;;11.77;10.63;;;20.30;88.50;;;;;;5080578;28;20453;-83
2021/04/20 12:05:03;;;;;;;13.27;11.80;;;20.00;85.50;;;;;;5064156;28;20413;-82
2021/04/20 12:07:29;;;;;;;12.67;11.33;;;18.70;89.80;;;;;;5098857;28;20564;-83
2021/04/20 12:09:56;;;;;;;13.67;11.90;;;18.70;90.20;;;;;;5099909;28;20404;-82
2021/04/20 12:12:28;;;;;;;15.40;11.97;;;18.30;92.60;;;;;;5097538;28;20458;-83
2021/04/20 12:14:55;;;;;;;13.03;10.57;;;19.90;91.40;;;;;;5089216;28;20433;-83
2021/04/20 12:17:32;;;;;;;13.90;12.40;;;21.10;86.60;;;;;;5088688;28;20774;-83
2021/04/20 12:20:04;;;;;;;12.93;11.63;;;20.40;88.40;;;;;;5103130;28;20806;-83
2021/04/20 12:22:30;;;;;;;22.03;19.20;;;19.80;90.20;;;;;;5099130;28;20428;-82
2021/04/20 12:24:58;;;;;;;18.07;12.67;;;18.40;89.40;;;;;;5093910;28;20531;-83
2021/04/20 12:27:25;;;;;;;16.00;12.02;;;17.90;92.90;;;;;;5095235;28;20408;-82
2021/04/20 12:29:52;;;;;;;11.43;10.23;;;18.40;93.40;;;;;;5102425;28;20175;-82
2021/04/20 12:32:22;;;;;;;15.00;13.50;;;19.40;92.50;;;;;;5102521;28;20475;-84
2021/04/20 12:34:56;;;;;;;16.30;14.60;;;20.10;92.40;;;;;;5081550;28;20433;-83
2021/04/20 12:37:26;;;;;;;15.53;12.87;;;20.10;92.20;;;;;;5085550;28;20407;-83
2021/04/20 12:40:03;;;;;;;16.13;13.50;;;19.40;93.70;;;;;;5082298;28;20399;-83
2021/04/20 12:42:33;;;;;;;14.50;12.70;;;19.20;94.40;;;;;;5101122;28;20532;-83
2021/04/20 12:45:08;;;;;;;16.60;14.70;;;19.00;94.80;;;;;;5086277;28;20413;-83
2021/04/20 12:47:42;;;;;;;17.90;14.43;;;18.70;95.30;;;;;;5100631;28;20857;-83
2021/04/20 12:50:13;;;;;;;14.07;12.63;;;18.30;96.10;;;;;;5083870;28;20400;-83
2021/04/20 12:52:42;;;;;;;16.13;12.90;;;18.30;96.90;;;;;;5096991;28;20456;-84
2021/04/20 12:55:16;;;;;;;18.23;13.23;;;18.30;96.60;;;;;;5101440;28;20470;-82
2021/04/20 12:57:45;;;;;;;15.77;13.23;;;18.20;96.60;;;;;;5074981;28;20396;-83
2021/04/20 13:00:17;;;;;;;16.53;12.73;;;18.20;96.80;;;;;;5075978;28;20468;-83